Current Weather

Chicago O'Hare International

Chicago, Illinois (KORD)

Report from: Wednesday, May 29, 2024 2:51 AM CDT
Current time: Wednesday, May 29, 2024 3:21 AM CDT

Nearby weather – Weather history – Daily summaries
Weather forecast

Present weatherLight rain
Temperature12.8°C (55.0°F)
Dew point11.1°C (52.0°F)
Winds 9 kts (4.6 m/s, 10.4 mph) North (350°)
Visibility10 mi. (16.1 km)
Clouds Ceiling: Broken clouds 1,500 ft. (457 m)
Overcast 8,000 ft. (2,438 m)
Altimeter30.06 in.Hg (1018 mB)
PrecipitiationTrace
Precip. events Rain began 2:20 AM
Relative humidity89 %
Density altitude-230 ft. (-70 m)
Sea-level pressure101.8 kPa (1018 mB, 30.06 in.Hg)
Remarks Automated weather observing station with precipitation discriminator
Flight conditions Marginal Visual Meteorological Conditions
Raw dataKORD 290751Z 35009KT 10SM -RA BKN015 OVC080 13/11 A3006 RMK AO2 RAB20 SLP178 P0000 T01280111
An error has occurred. This application may no longer respond until reloaded. Reload 🗙